Norfolk, Virginia
Traffic Map
Current Weather Conditions
Norfolk, Virginia
Clear
Clear
72°
Feels Like: 72°
Wind Chill: 72° Ceiling: Unl
Heat Index: 72° Visibility: 10mi
Dew Point: 51° Wind: 6mph
Humidity: 48% Direction: ° ()
Pressure: 29.85in Gusts: 0mph
Raw Report DataKORF 211651Z AUTO VRB05KT 10SM CLR 22/11 A2985 RMK AO2 SLP106 T02220106 TSNO
Traffic Incident Summary
Active as of:
Severity:
Category:
InformationThere was an issue retrieving the traffic information for this location. Please try a different location or try again shortly.
Advertisements
Track Severe Weather on mobile